createdAt,value
2017-08-17T00:02:17.131Z,92.00
2017-08-17T00:04:44.606Z,92.10
2017-08-17T00:07:12.072Z,92.30
2017-08-17T00:09:39.555Z,92.10
2017-08-17T00:12:07.025Z,92.20
2017-08-17T00:14:34.505Z,92.00
2017-08-17T00:17:01.975Z,92.10
2017-08-17T00:19:29.447Z,92.00
2017-08-17T00:21:57.726Z,92.30
2017-08-17T00:24:25.992Z,91.90
2017-08-17T00:26:53.468Z,91.90
2017-08-17T00:29:21.704Z,91.90
2017-08-17T00:31:49.184Z,91.90
2017-08-17T00:34:16.650Z,92.00
2017-08-17T00:36:44.907Z,91.80
2017-08-17T00:39:12.385Z,91.70
2017-08-17T00:41:40.635Z,91.90
2017-08-17T00:44:08.100Z,91.90
2017-08-17T00:46:35.584Z,91.80
2017-08-17T00:49:03.819Z,91.70
2017-08-17T00:51:31.301Z,91.70
2017-08-17T00:53:58.767Z,91.70
2017-08-17T00:56:26.242Z,91.80
2017-08-17T00:58:54.759Z,91.70
2017-08-17T01:01:22.231Z,91.70
2017-08-17T01:03:49.691Z,91.60
2017-08-17T01:06:17.162Z,91.50
2017-08-17T01:08:44.640Z,91.50
2017-08-17T01:11:12.891Z,91.30
2017-08-17T01:13:40.356Z,91.40
2017-08-17T01:16:07.822Z,91.30
2017-08-17T01:18:35.303Z,91.60
2017-08-17T01:21:03.539Z,91.60
2017-08-17T01:23:31.004Z,91.60
2017-08-17T01:25:58.486Z,91.90
2017-08-17T01:28:25.940Z,92.20
2017-08-17T01:30:54.207Z,92.20
2017-08-17T01:33:21.680Z,92.10
2017-08-17T01:35:49.939Z,92.70
2017-08-17T01:38:17.403Z,92.30
2017-08-17T01:40:44.867Z,92.40
2017-08-17T01:43:12.356Z,92.40
2017-08-17T01:45:39.819Z,92.60
2017-08-17T01:48:07.296Z,92.80
2017-08-17T01:50:34.770Z,93.00
2017-08-17T01:53:02.244Z,93.00
2017-08-17T01:55:29.712Z,93.00
2017-08-17T01:57:57.187Z,93.10
2017-08-17T02:00:25.419Z,92.90
2017-08-17T02:02:52.890Z,92.80
2017-08-17T02:05:20.366Z,93.00
2017-08-17T02:07:47.836Z,93.30
2017-08-17T02:10:16.074Z,92.80
2017-08-17T02:12:43.544Z,92.80
2017-08-17T02:15:11.014Z,92.80
2017-08-17T02:17:38.490Z,92.80
2017-08-17T02:20:06.732Z,92.70
2017-08-17T02:22:34.186Z,92.70
2017-08-17T02:25:03.180Z,92.90
2017-08-17T02:27:30.644Z,93.10
2017-08-17T02:29:58.115Z,93.40
2017-08-17T02:32:25.583Z,93.60
2017-08-17T02:34:53.828Z,94.00
2017-08-17T02:37:21.304Z,93.60
2017-08-17T02:39:48.783Z,93.70
2017-08-17T02:42:17.027Z,93.60
2017-08-17T02:44:44.500Z,93.70
2017-08-17T02:47:11.975Z,93.50
2017-08-17T02:49:40.221Z,93.40
2017-08-17T02:52:07.695Z,93.30
2017-08-17T02:54:35.176Z,93.20
2017-08-17T02:57:03.407Z,93.20
2017-08-17T02:59:30.871Z,93.20
2017-08-17T03:01:58.337Z,93.10
2017-08-17T03:04:25.803Z,93.10
2017-08-17T03:06:54.054Z,93.10
2017-08-17T03:09:21.528Z,93.10
2017-08-17T03:11:52.772Z,93.10
2017-08-17T03:14:20.240Z,93.40
2017-08-17T03:16:47.718Z,93.40
2017-08-17T03:19:15.951Z,93.20
2017-08-17T03:21:43.433Z,93.50
2017-08-17T03:24:10.893Z,93.20
2017-08-17T03:26:38.379Z,93.30
2017-08-17T03:29:05.843Z,93.00
2017-08-17T03:31:33.574Z,93.50
2017-08-17T03:34:01.026Z,93.50
2017-08-17T03:36:28.499Z,93.30
2017-08-17T03:38:56.727Z,93.60
2017-08-17T03:41:24.198Z,93.60
2017-08-17T03:43:51.657Z,93.90
2017-08-17T03:46:19.135Z,93.60
2017-08-17T03:48:46.607Z,94.00
2017-08-17T03:51:14.093Z,94.20
2017-08-17T03:53:41.554Z,94.00
2017-08-17T03:56:09.036Z,94.20
2017-08-17T03:58:36.511Z,94.60
2017-08-17T04:01:03.981Z,94.60
2017-08-17T04:03:31.447Z,95.00
2017-08-17T04:05:58.922Z,94.80
2017-08-17T04:08:26.399Z,95.00
2017-08-17T04:10:53.879Z,94.80
2017-08-17T04:13:21.344Z,94.90
2017-08-17T04:15:48.819Z,94.60
2017-08-17T04:18:16.288Z,94.60
2017-08-17T04:20:43.765Z,94.60
2017-08-17T04:23:11.236Z,94.90
2017-08-17T04:25:39.472Z,94.90
2017-08-17T04:28:06.946Z,94.90
2017-08-17T04:30:34.407Z,94.90
2017-08-17T04:33:01.893Z,95.10
2017-08-17T04:35:30.123Z,94.80
2017-08-17T04:37:57.610Z,94.80
2017-08-17T04:40:25.068Z,94.80
2017-08-17T04:42:53.307Z,94.40
2017-08-17T04:45:20.772Z,94.60
2017-08-17T04:47:48.268Z,94.50
2017-08-17T04:50:15.731Z,94.30
2017-08-17T04:52:43.959Z,94.60
2017-08-17T04:55:11.659Z,94.60
2017-08-17T04:58:05.022Z,94.70
2017-08-17T05:00:32.482Z,94.60
2017-08-17T05:03:00.702Z,95.30
2017-08-17T05:05:28.183Z,95.00
2017-08-17T05:07:55.655Z,95.00
2017-08-17T05:10:23.127Z,95.00
2017-08-17T05:12:50.596Z,95.10
2017-08-17T05:15:18.835Z,95.20
2017-08-17T05:17:46.304Z,95.10
2017-08-17T05:20:13.783Z,95.00
2017-08-17T05:22:42.018Z,95.00
2017-08-17T05:25:09.506Z,95.00
2017-08-17T05:27:36.981Z,95.30
2017-08-17T05:30:05.220Z,95.30
2017-08-17T05:32:32.681Z,95.30
2017-08-17T05:35:00.157Z,95.30
2017-08-17T05:37:27.622Z,95.30
2017-08-17T05:39:55.095Z,95.40
2017-08-17T05:42:23.327Z,95.20
2017-08-17T05:44:50.803Z,95.20
2017-08-17T05:47:18.262Z,95.10
2017-08-17T05:49:45.742Z,95.40
2017-08-17T05:52:13.970Z,95.80
2017-08-17T05:57:15.359Z,95.30
2017-08-17T05:59:42.846Z,95.20
2017-08-17T06:02:11.074Z,95.70
2017-08-17T06:04:38.565Z,95.70
2017-08-17T06:07:06.053Z,95.80
2017-08-17T06:09:33.528Z,95.70
2017-08-17T06:12:01.011Z,96.00
2017-08-17T06:14:28.479Z,96.00
2017-08-17T06:16:56.019Z,95.70
2017-08-17T06:19:23.490Z,96.10
2017-08-17T06:21:50.972Z,96.10
2017-08-17T06:24:18.434Z,96.30
2017-08-17T06:26:45.905Z,95.80
2017-08-17T06:29:13.377Z,95.70
2017-08-17T06:31:40.862Z,95.30
2017-08-17T06:34:08.325Z,94.30
2017-08-17T06:36:35.802Z,94.20
2017-08-17T06:39:03.276Z,94.10
2017-08-17T06:41:30.758Z,93.90
2017-08-17T06:43:58.982Z,93.30
2017-08-17T06:46:26.466Z,93.30
2017-08-17T06:48:53.936Z,93.20
2017-08-17T06:51:21.398Z,93.00
2017-08-17T06:53:48.871Z,93.20
2017-08-17T06:56:17.486Z,92.40
2017-08-17T06:58:44.956Z,92.30
2017-08-17T07:01:12.437Z,92.80
2017-08-17T07:03:39.929Z,92.00
2017-08-17T07:06:08.160Z,91.90
2017-08-17T07:08:35.637Z,91.90
2017-08-17T07:11:03.114Z,91.80
2017-08-17T07:13:30.585Z,90.70
2017-08-17T07:15:58.828Z,90.00
2017-08-17T07:18:26.627Z,89.90
2017-08-17T07:20:54.855Z,91.30
2017-08-17T07:23:22.321Z,91.30
2017-08-17T07:25:49.788Z,91.30
2017-08-17T07:28:17.274Z,90.70
2017-08-17T07:30:44.747Z,90.20
2017-08-17T07:33:12.202Z,90.70
2017-08-17T07:35:39.690Z,90.40
2017-08-17T07:38:07.259Z,91.30
2017-08-17T07:40:34.740Z,91.90
2017-08-17T07:43:02.301Z,91.40
2017-08-17T07:45:30.574Z,91.00
2017-08-17T07:47:58.043Z,91.10
2017-08-17T07:50:25.514Z,90.90
2017-08-17T07:52:53.746Z,91.30
2017-08-17T07:55:21.218Z,91.30
2017-08-17T07:57:48.681Z,91.10
2017-08-17T08:00:16.288Z,91.00
2017-08-17T08:02:43.751Z,91.00
2017-08-17T08:05:11.232Z,91.30
2017-08-17T08:07:38.691Z,91.80
2017-08-17T08:10:06.195Z,91.30
2017-08-17T08:12:33.654Z,90.90
2017-08-17T08:15:01.375Z,91.00
2017-08-17T08:17:28.843Z,89.70
2017-08-17T08:19:56.326Z,88.20
2017-08-17T08:22:23.789Z,89.60
2017-08-17T08:24:51.250Z,88.10
2017-08-17T08:27:18.723Z,90.00
2017-08-17T08:29:46.959Z,91.00
2017-08-17T08:32:14.431Z,91.00
2017-08-17T08:34:41.911Z,91.00
2017-08-17T08:37:10.154Z,91.50
2017-08-17T08:39:37.611Z,91.50
2017-08-17T08:42:05.079Z,91.80
2017-08-17T08:44:32.546Z,91.50
2017-08-17T08:47:00.019Z,91.20
2017-08-17T08:49:28.242Z,91.80
2017-08-17T08:51:55.707Z,91.80
2017-08-17T08:54:23.170Z,91.50
2017-08-17T08:56:50.633Z,92.50
2017-08-17T08:59:18.086Z,92.20
2017-08-17T09:01:45.558Z,92.00
2017-08-17T09:04:13.010Z,92.00
2017-08-17T09:06:40.500Z,92.40
2017-08-17T09:09:07.954Z,92.50
2017-08-17T09:11:35.443Z,91.00
2017-08-17T09:14:02.908Z,91.10
2017-08-17T09:16:30.366Z,90.30
2017-08-17T09:18:57.843Z,91.00
2017-08-17T09:21:25.302Z,90.10
2017-08-17T09:23:52.776Z,89.20
2017-08-17T09:26:20.243Z,88.90
2017-08-17T09:28:47.703Z,86.70
2017-08-17T09:31:15.168Z,84.50
2017-08-17T09:33:42.626Z,85.10
2017-08-17T09:36:10.082Z,85.80
2017-08-17T09:38:37.551Z,82.30
2017-08-17T09:41:05.024Z,82.30
2017-08-17T09:43:32.491Z,82.70
2017-08-17T09:46:00.720Z,79.20
2017-08-17T09:48:28.196Z,79.10
2017-08-17T09:50:55.656Z,77.10
2017-08-17T09:53:23.134Z,76.50
2017-08-17T09:55:51.368Z,75.90
2017-08-17T09:58:18.844Z,75.80
2017-08-17T10:00:46.297Z,76.70
2017-08-17T10:03:13.783Z,75.00
2017-08-17T10:05:42.007Z,70.40
2017-08-17T10:08:09.459Z,69.70
2017-08-17T10:10:36.934Z,71.30
2017-08-17T10:13:04.390Z,72.70
2017-08-17T10:15:31.859Z,72.50
2017-08-17T10:17:59.327Z,68.90
2017-08-17T10:20:26.794Z,70.10
2017-08-17T10:22:54.258Z,69.30
2017-08-17T10:25:21.743Z,70.60
2017-08-17T10:27:49.226Z,68.60
2017-08-17T10:30:16.691Z,66.20
2017-08-17T10:32:44.153Z,64.70
2017-08-17T10:35:11.623Z,63.90
2017-08-17T10:37:39.079Z,64.10
2017-08-17T10:40:06.562Z,65.20
2017-08-17T10:42:34.015Z,64.50
2017-08-17T10:45:01.491Z,65.00
2017-08-17T10:47:28.945Z,64.30
2017-08-17T10:49:56.410Z,63.90
2017-08-17T10:52:24.645Z,64.20
2017-08-17T10:54:52.205Z,64.10
2017-08-17T10:57:19.666Z,65.00
2017-08-17T10:59:47.136Z,64.70
2017-08-17T11:02:14.599Z,64.20
2017-08-17T11:04:42.052Z,64.20
2017-08-17T11:07:09.531Z,64.70
2017-08-17T11:09:36.986Z,65.10
2017-08-17T11:12:05.244Z,63.20
2017-08-17T11:14:32.707Z,63.20
2017-08-17T11:17:00.180Z,63.60
2017-08-17T11:19:27.647Z,61.60
2017-08-17T11:21:55.883Z,60.90
2017-08-17T11:24:23.350Z,60.80
2017-08-17T11:26:50.836Z,57.90
2017-08-17T11:29:19.070Z,57.80
2017-08-17T11:31:46.544Z,57.20
2017-08-17T11:34:14.007Z,58.40
2017-08-17T11:36:41.475Z,57.70
2017-08-17T11:39:08.934Z,56.90
2017-08-17T11:41:36.424Z,55.90
2017-08-17T11:44:04.650Z,56.40
2017-08-17T11:46:32.118Z,56.40
2017-08-17T11:48:59.577Z,57.60
2017-08-17T11:51:27.058Z,57.40
2017-08-17T11:53:55.284Z,55.90
2017-08-17T11:56:22.756Z,55.90
2017-08-17T11:58:50.220Z,57.70
2017-08-17T12:01:17.680Z,57.70
2017-08-17T12:03:45.141Z,57.20
2017-08-17T12:06:12.593Z,57.20
2017-08-17T12:08:40.057Z,56.90
2017-08-17T12:11:07.529Z,55.40
2017-08-17T12:13:35.005Z,57.20
2017-08-17T12:16:03.279Z,57.60
2017-08-17T12:18:31.523Z,59.40
2017-08-17T12:20:59.056Z,58.80
2017-08-17T12:23:26.925Z,58.40
2017-08-17T12:25:54.380Z,58.40
2017-08-17T12:28:21.847Z,57.40
2017-08-17T12:30:49.313Z,59.40
2017-08-17T12:33:16.779Z,60.20
2017-08-17T12:35:44.242Z,60.10
2017-08-17T12:38:11.706Z,59.30
2017-08-17T12:40:39.158Z,59.40
2017-08-17T12:43:06.695Z,59.90
2017-08-17T12:45:34.150Z,59.40
2017-08-17T12:48:01.610Z,59.80
2017-08-17T12:50:29.079Z,60.00
2017-08-17T12:52:56.551Z,59.90
2017-08-17T12:55:24.017Z,60.70
2017-08-17T12:57:51.486Z,61.00
2017-08-17T13:00:18.950Z,61.50
2017-08-17T13:02:46.417Z,61.10
2017-08-17T13:05:13.882Z,61.90
2017-08-17T13:07:42.109Z,61.10
2017-08-17T13:10:09.580Z,61.00
2017-08-17T13:12:37.051Z,62.50
2017-08-17T13:15:04.515Z,61.80
2017-08-17T13:17:31.972Z,62.60
2017-08-17T13:19:59.446Z,63.90
2017-08-17T13:22:27.678Z,63.10
2017-08-17T13:24:55.148Z,63.80
2017-08-17T13:27:22.617Z,64.50
2017-08-17T13:29:50.085Z,65.00
2017-08-17T13:32:17.558Z,64.40
2017-08-17T13:34:45.807Z,65.20
2017-08-17T13:37:13.272Z,65.20
2017-08-17T13:39:40.733Z,62.30
2017-08-17T13:42:08.190Z,62.00
2017-08-17T13:44:35.665Z,62.70
2017-08-17T13:47:03.131Z,63.70
2017-08-17T13:49:31.362Z,63.60
2017-08-17T13:51:58.828Z,63.60
2017-08-17T13:54:26.291Z,62.80
2017-08-17T13:56:53.768Z,63.10
2017-08-17T13:59:21.231Z,63.30
2017-08-17T14:01:48.703Z,65.30
2017-08-17T14:04:16.927Z,65.00
2017-08-17T14:06:44.403Z,65.00
2017-08-17T14:09:11.871Z,65.50
2017-08-17T14:11:39.351Z,66.20
2017-08-17T14:14:07.571Z,66.70
2017-08-17T14:16:35.055Z,66.70
2017-08-17T14:19:02.508Z,67.80
2017-08-17T14:21:29.964Z,67.50
2017-08-17T14:23:57.448Z,67.00
2017-08-17T14:26:24.907Z,66.80
2017-08-17T14:28:52.368Z,66.30
2017-08-17T14:31:20.599Z,67.80
2017-08-17T14:33:48.054Z,67.80
2017-08-17T14:36:15.524Z,68.20
2017-08-17T14:38:42.999Z,68.50
2017-08-17T14:41:10.453Z,68.60
2017-08-17T14:43:37.919Z,68.20
2017-08-17T14:46:05.380Z,69.30
2017-08-17T14:48:32.851Z,70.60
2017-08-17T14:51:01.091Z,69.80
2017-08-17T14:53:28.566Z,69.70
2017-08-17T14:55:56.028Z,70.90
2017-08-17T14:58:23.486Z,69.50
2017-08-17T15:00:50.955Z,71.00
2017-08-17T15:03:18.427Z,70.40
2017-08-17T15:05:46.660Z,71.50
2017-08-17T15:08:14.151Z,71.40
2017-08-17T15:10:41.618Z,71.80
2017-08-17T15:13:09.843Z,72.10
2017-08-17T15:15:37.316Z,72.00
2017-08-17T15:18:04.785Z,71.40
2017-08-17T15:20:32.260Z,70.80
2017-08-17T15:22:59.715Z,70.60
2017-08-17T15:25:27.202Z,70.60
2017-08-17T15:27:55.454Z,70.00
2017-08-17T15:30:23.716Z,70.10
2017-08-17T15:32:51.184Z,70.10
2017-08-17T15:35:18.646Z,68.90
2017-08-17T15:37:46.114Z,69.50
2017-08-17T15:40:14.361Z,68.50
2017-08-17T15:42:41.821Z,68.30
2017-08-17T15:45:09.279Z,69.40
2017-08-17T15:47:36.747Z,68.60
2017-08-17T15:50:04.216Z,69.10
2017-08-17T15:52:31.691Z,68.90
2017-08-17T15:54:59.939Z,69.30
2017-08-17T15:57:27.392Z,69.20
2017-08-17T15:59:54.919Z,69.20
2017-08-17T16:02:22.389Z,69.10
2017-08-17T16:04:49.860Z,69.60
2017-08-17T16:07:17.318Z,69.20
2017-08-17T16:09:44.777Z,69.60
2017-08-17T16:12:12.259Z,70.00
2017-08-17T16:14:39.724Z,70.30
2017-08-17T16:17:07.197Z,70.60
2017-08-17T16:19:35.431Z,71.40
2017-08-17T16:22:02.903Z,71.30
2017-08-17T16:24:30.353Z,71.50
2017-08-17T16:26:57.836Z,72.40
2017-08-17T16:29:25.287Z,75.50
2017-08-17T16:31:52.755Z,77.40
2017-08-17T16:34:20.983Z,78.70
2017-08-17T16:36:48.455Z,78.70
2017-08-17T16:39:15.921Z,79.50
2017-08-17T16:41:44.902Z,80.60
2017-08-17T16:44:12.373Z,80.60
2017-08-17T16:46:39.942Z,80.70
2017-08-17T16:49:07.406Z,81.40
2017-08-17T16:51:35.679Z,81.20
2017-08-17T16:54:03.151Z,82.00
2017-08-17T16:56:31.395Z,84.70
2017-08-17T16:58:58.882Z,84.20
2017-08-17T17:01:26.330Z,84.50
2017-08-17T17:03:53.803Z,84.70
2017-08-17T17:06:22.027Z,87.20
2017-08-17T17:08:49.502Z,87.10
2017-08-17T17:11:16.972Z,87.60
2017-08-17T17:13:44.494Z,88.00
2017-08-17T17:16:11.967Z,87.90
2017-08-17T17:18:39.435Z,88.20
2017-08-17T17:21:06.901Z,88.00
2017-08-17T17:23:34.353Z,87.70
2017-08-17T17:26:01.816Z,88.20
2017-08-17T17:28:29.653Z,87.80
2017-08-17T17:30:57.132Z,89.50
2017-08-17T17:33:24.606Z,88.80
2017-08-17T17:35:52.068Z,86.50
2017-08-17T17:38:19.534Z,85.90
2017-08-17T17:40:46.986Z,86.30
2017-08-17T17:43:14.466Z,86.10
2017-08-17T17:45:42.702Z,87.10
2017-08-17T17:48:10.162Z,87.10
2017-08-17T17:50:37.631Z,85.70
2017-08-17T17:53:05.097Z,84.40
2017-08-17T17:55:32.555Z,85.20
2017-08-17T17:58:00.029Z,85.10
2017-08-17T18:00:28.255Z,86.50
2017-08-17T18:02:55.717Z,86.00
2017-08-17T18:05:23.255Z,85.80
2017-08-17T18:07:50.716Z,85.10
2017-08-17T18:10:18.211Z,85.10
2017-08-17T18:12:45.687Z,85.70
2017-08-17T18:15:13.151Z,86.00
2017-08-17T18:17:40.632Z,86.70
2017-08-17T18:20:08.851Z,87.60
2017-08-17T18:22:36.332Z,87.50
2017-08-17T18:25:03.806Z,87.80
2017-08-17T18:27:31.266Z,88.50
2017-08-17T18:30:00.206Z,88.30
2017-08-17T18:32:27.669Z,88.30
2017-08-17T18:34:55.134Z,88.60
2017-08-17T18:37:22.595Z,88.80
2017-08-17T18:39:50.087Z,88.10
2017-08-17T18:42:17.576Z,88.20
2017-08-17T18:44:45.094Z,89.00
2017-08-17T18:47:12.613Z,89.00
2017-08-17T18:49:40.066Z,89.10
2017-08-17T18:52:07.536Z,89.20
2017-08-17T18:54:35.005Z,89.30
2017-08-17T18:57:02.467Z,88.80
2017-08-17T18:59:29.938Z,88.60
2017-08-17T19:01:57.403Z,89.00
2017-08-17T19:04:24.861Z,88.70
2017-08-17T19:06:52.344Z,88.80
2017-08-17T19:09:21.506Z,88.60
2017-08-17T19:11:48.971Z,88.50
2017-08-17T19:14:16.435Z,88.50
2017-08-17T19:16:43.899Z,88.50
2017-08-17T19:19:11.358Z,87.70
2017-08-17T19:21:39.432Z,87.60
2017-08-17T19:24:06.899Z,87.80
2017-08-17T19:26:35.126Z,88.30
2017-08-17T19:29:02.587Z,87.80
2017-08-17T19:31:30.059Z,88.70
2017-08-17T19:33:57.540Z,89.50
2017-08-17T19:36:25.000Z,88.70
2017-08-17T19:38:52.453Z,89.00
2017-08-17T19:41:19.932Z,89.10
2017-08-17T19:43:48.149Z,89.30
2017-08-17T19:46:15.618Z,88.60
2017-08-17T19:48:43.084Z,88.60
2017-08-17T19:51:10.551Z,89.20
2017-08-17T19:53:38.014Z,88.60
2017-08-17T19:56:06.987Z,88.80
2017-08-17T19:58:34.447Z,88.20
2017-08-17T20:01:03.248Z,88.00
2017-08-17T20:03:30.707Z,87.70
2017-08-17T20:05:58.461Z,87.80
2017-08-17T20:08:25.917Z,87.20
2017-08-17T20:10:53.387Z,87.70
2017-08-17T20:13:20.864Z,87.80
2017-08-17T20:15:48.333Z,87.70
2017-08-17T20:18:16.558Z,87.40
2017-08-17T20:20:44.028Z,87.40
2017-08-17T20:23:11.509Z,87.60
2017-08-17T20:25:38.987Z,88.00
2017-08-17T20:28:07.220Z,89.10
2017-08-17T20:30:34.712Z,88.50
2017-08-17T20:33:02.170Z,88.10
2017-08-17T20:35:30.410Z,88.90
2017-08-17T20:37:57.887Z,88.60
2017-08-17T20:40:25.342Z,88.90
2017-08-17T20:42:52.829Z,89.00
2017-08-17T20:45:21.060Z,89.50
2017-08-17T20:47:48.527Z,89.50
2017-08-17T20:50:16.010Z,89.60
2017-08-17T20:52:43.498Z,89.80
2017-08-17T20:55:10.961Z,89.80
2017-08-17T20:57:38.440Z,90.00
2017-08-17T21:00:05.895Z,90.00
2017-08-17T21:02:33.367Z,90.20
2017-08-17T21:05:00.833Z,90.10
2017-08-17T21:07:28.315Z,90.30
2017-08-17T21:09:56.247Z,90.30
2017-08-17T21:12:23.715Z,90.30
2017-08-17T21:14:51.188Z,90.30
2017-08-17T21:17:18.650Z,90.30
2017-08-17T21:19:46.127Z,90.30
2017-08-17T21:22:13.606Z,90.20
2017-08-17T21:24:41.826Z,90.10
2017-08-17T21:27:09.287Z,90.10
2017-08-17T21:29:36.755Z,90.30
2017-08-17T21:32:04.233Z,90.50
2017-08-17T21:34:31.700Z,90.50
2017-08-17T21:36:59.927Z,90.70
2017-08-17T21:39:27.396Z,90.40
2017-08-17T21:41:54.859Z,90.40
2017-08-17T21:44:22.339Z,90.40
2017-08-17T21:46:49.806Z,90.60
2017-08-17T21:49:17.275Z,90.60
2017-08-17T21:51:45.494Z,90.40
2017-08-17T21:54:12.967Z,90.40
2017-08-17T21:56:40.451Z,90.50
2017-08-17T21:59:44.481Z,90.70
2017-08-17T22:02:11.943Z,90.70
2017-08-17T22:04:40.181Z,90.70
2017-08-17T22:07:07.635Z,90.70
2017-08-17T22:09:35.114Z,90.70
2017-08-17T22:12:02.564Z,90.80
2017-08-17T22:14:30.026Z,90.70
2017-08-17T22:16:57.492Z,90.70
2017-08-17T22:19:24.977Z,90.70
2017-08-17T22:21:52.438Z,90.70
2017-08-17T22:24:19.907Z,90.70
2017-08-17T22:26:47.393Z,90.70
2017-08-17T22:29:14.851Z,90.70
2017-08-17T22:31:42.327Z,90.60
2017-08-17T22:34:09.791Z,90.60
2017-08-17T22:36:37.263Z,90.70
2017-08-17T22:39:05.494Z,90.80
2017-08-17T22:41:32.959Z,90.60
2017-08-17T22:44:01.579Z,90.50
2017-08-17T22:46:29.054Z,90.50
2017-08-17T22:48:57.274Z,90.50
2017-08-17T22:51:24.761Z,90.50
2017-08-17T22:53:52.214Z,90.50
2017-08-17T22:56:19.947Z,90.60
2017-08-17T22:58:47.400Z,90.60
2017-08-17T23:01:14.864Z,90.60
2017-08-17T23:03:42.321Z,90.70
2017-08-17T23:06:09.791Z,90.80
2017-08-17T23:08:37.251Z,90.70
2017-08-17T23:11:04.735Z,90.70
2017-08-17T23:13:32.190Z,90.60
2017-08-17T23:15:59.676Z,90.60
2017-08-17T23:18:27.901Z,90.50
2017-08-17T23:20:55.366Z,90.50
2017-08-17T23:23:22.834Z,90.50
2017-08-17T23:25:50.304Z,90.40
2017-08-17T23:28:17.766Z,90.40
2017-08-17T23:30:45.233Z,90.30
2017-08-17T23:33:12.706Z,90.30
2017-08-17T23:35:40.167Z,90.40
2017-08-17T23:38:07.636Z,90.50
2017-08-17T23:40:35.091Z,90.70
2017-08-17T23:43:02.565Z,90.80
2017-08-17T23:45:30.028Z,90.90
2017-08-17T23:47:57.499Z,91.10
2017-08-17T23:50:24.963Z,91.10
2017-08-17T23:52:52.752Z,91.10
2017-08-17T23:55:20.200Z,91.00
2017-08-17T23:57:47.672Z,91.00
